Roseburg Regional, OR

11:58 PM PDT on June 30, 2015 (GMT -0700)
Roseburg Regional | | Change Station
CLOSE
Current Station
Airport
Location: Roseburg,
Elevation: 525 ft
Nearby Weather Stations
Active Advisory: Heat Advisory Active Notice: Record Report

Elev 525 ft 43.24 °N, 123.36 °W | Updated 5 minutes ago

Clear
Clear
78 °F
Feels Like 78 °F
N
4
Wind Variable Wind from SW

Today
High -- | Low -- °F
--% Chance of Precip.
Yesterday
High -- | Low -- °F
Precip. -- in
5:36 AM 8:57 PM
Waxing Gibbous, 99% visible
Pressure 29.95 in
Visibility 10.0 miles
Clouds Clear
Dew Point 56 °F
Humidity 46%
Rainfall 0.00 in
Snow Depth Not available.
UV 0 out of 12
Pollen 9.70 out of 12
Air Quality Not available.
Flu Activity Not available.
METAR KRBG 010653Z AUTO 22003KT 10SM CLR 26/13 A2997 RMK AO2 SLP142 T02560133

More Conditions Fewer Conditions

Pressure 29.95 in
Visibility 10.0 miles
Clouds Clear
Dew Point 56 °F
Humidity 46%
Rainfall 0.00 in
Snow Depth Not available.
UV 0 out of 12
Pollen 9.70 out of 12
Air Quality Not available.
Flu Activity Not available.
METAR KRBG 010653Z AUTO 22003KT 10SM CLR 26/13 A2997 RMK AO2 SLP142 T02560133

More Conditions Fewer Conditions

10-Day Weather Forecast

×

Almanac

Astronomy

Jun. 30, 2015 Rise Set
Actual Time
Civil Twilight
Nautical Twilight
Astronomical Twilight
Moon
Length of Visible Light
Length of Day
Tomorrow will be .
, % of the Moon is Illuminated

Today's Extremes

State Highs State Lows

Community

WunderPhotos

Upload Photos

1,834,162 photos uploaded!

WunderBlogs® & News

Nearby

Air Quality

  Air Quality AQ Index Pollutant
Not available.

Snow Depth

Station Depth Elevation

Earthquake Activity

City Distance Mag. Time & Date
Minimum magnitude displayed is 2.5.

Coastal Water Temperatures

Place Temperature

Stations

Nearby Weather Stations

Station Location Temp. Windchill Dew Point Humidity Wind Precip. Elev Updated Type
                   
Heat Advisory
Statement as of 2:26 PM PDT on June 30, 2015

... Heat advisory remains in effect from 1 PM Wednesday to 11 PM
PDT Friday...

A heat advisory remains in effect from 1 PM Wednesday to 11 PM
PDT Friday.

* Temperature: 95 to 105.

* Locations include: drain... Roseburg... Sutherlin... green...
Myrtle Creek... Canyonville.

* Impacts: there is higher risk for heat exhaustion and heat
stroke. Those who are elderly... sick... Young... or overweight
are more susceptible to heat related illnesses.

* View the hazard area in detail at
http://weather.Gov/Medford/hazard

Precautionary/preparedness actions...

* drink plenty of water and seek shade.

* Use caution near area rivers... which are cold and can have
strong currents... and be sure to wear a life jacket.

* Take plenty of rest breaks.

* Do not leave pets or children in automobiles for any length
of time.